createdAt,value
2017-10-09T00:00:28.602Z,12.30
2017-10-09T00:02:56.101Z,13.80
2017-10-09T00:05:23.599Z,16.50
2017-10-09T00:07:51.131Z,12.87
2017-10-09T00:10:18.632Z,8.57
2017-10-09T00:12:46.951Z,12.13
2017-10-09T00:15:14.461Z,13.07
2017-10-09T00:17:42.765Z,9.27
2017-10-09T00:20:10.268Z,20.07
2017-10-09T00:22:37.789Z,13.67
2017-10-09T00:25:05.282Z,13.17
2017-10-09T00:27:32.816Z,11.50
2017-10-09T00:30:00.365Z,12.23
2017-10-09T00:32:27.877Z,14.55
2017-10-09T00:34:56.158Z,18.53
2017-10-09T00:37:24.432Z,15.47
2017-10-09T00:39:52.729Z,13.73
2017-10-09T00:42:20.251Z,20.37
2017-10-09T00:44:47.767Z,27.90
2017-10-09T00:47:15.259Z,26.40
2017-10-09T00:49:42.774Z,9.40
2017-10-09T00:52:10.285Z,12.47
2017-10-09T00:54:38.617Z,14.87
2017-10-09T00:57:06.154Z,13.50
2017-10-09T00:59:33.647Z,11.87
2017-10-09T01:02:01.163Z,22.83
2017-10-09T01:04:29.564Z,19.87
2017-10-09T01:06:57.075Z,11.63
2017-10-09T01:09:25.349Z,18.43
2017-10-09T01:11:52.872Z,18.30
2017-10-09T01:14:20.389Z,24.53
2017-10-09T01:16:48.685Z,14.03
2017-10-09T01:19:16.194Z,20.60
2017-10-09T01:21:43.695Z,13.35
2017-10-09T01:24:11.208Z,12.40
2017-10-09T01:26:38.702Z,12.17
2017-10-09T01:29:06.978Z,11.70
2017-10-09T01:31:35.283Z,24.07
2017-10-09T01:34:02.826Z,18.13
2017-10-09T01:36:30.328Z,11.27
2017-10-09T01:38:57.870Z,16.63
2017-10-09T01:41:25.689Z,26.60
2017-10-09T01:43:53.973Z,18.70
2017-10-09T01:46:22.264Z,13.20
2017-10-09T01:48:49.782Z,17.67
2017-10-09T01:51:17.393Z,24.23
2017-10-09T01:53:44.907Z,14.50
2017-10-09T01:56:12.470Z,12.53
2017-10-09T01:58:39.995Z,20.10
2017-10-09T02:01:08.255Z,19.97
2017-10-09T02:03:36.580Z,16.50
2017-10-09T02:06:04.088Z,21.43
2017-10-09T02:08:32.386Z,14.83
2017-10-09T02:10:59.940Z,14.80
2017-10-09T02:13:28.246Z,16.50
2017-10-09T02:15:55.809Z,16.83
2017-10-09T02:18:23.307Z,21.65
2017-10-09T02:20:50.854Z,22.50
2017-10-09T02:23:18.351Z,19.83
2017-10-09T02:25:46.658Z,14.55
2017-10-09T02:28:14.172Z,18.58
2017-10-09T02:30:42.463Z,14.93
2017-10-09T02:33:10.724Z,20.70
2017-10-09T02:35:38.271Z,10.77
2017-10-09T02:38:05.777Z,20.73
2017-10-09T02:40:33.345Z,15.13
2017-10-09T02:43:00.852Z,16.70
2017-10-09T02:45:28.367Z,16.10
2017-10-09T02:47:55.877Z,22.05
2017-10-09T02:50:23.366Z,29.13
2017-10-09T02:52:50.886Z,19.23
2017-10-09T02:55:19.156Z,17.27
2017-10-09T02:57:46.679Z,20.62
2017-10-09T03:00:14.194Z,19.00
2017-10-09T03:02:41.749Z,21.05
2017-10-09T03:05:10.065Z,18.07
2017-10-09T03:07:37.570Z,18.83
2017-10-09T03:10:05.839Z,23.35
2017-10-09T03:12:33.538Z,21.03
2017-10-09T03:15:01.038Z,19.47
2017-10-09T03:17:28.573Z,18.97
2017-10-09T03:19:56.090Z,16.53
2017-10-09T03:25:41.775Z,20.63
2017-10-09T03:28:14.995Z,21.90
2017-10-09T03:30:43.269Z,17.33
2017-10-09T03:33:11.572Z,14.77
2017-10-09T03:35:39.076Z,19.07
2017-10-09T03:38:06.592Z,23.43
2017-10-09T03:40:34.107Z,20.13
2017-10-09T03:43:01.616Z,18.53
2017-10-09T03:45:29.135Z,22.33
2017-10-09T03:47:57.402Z,14.63
2017-10-09T03:50:25.695Z,24.73
2017-10-09T03:52:53.286Z,15.18
2017-10-09T03:55:20.800Z,31.58
2017-10-09T03:57:49.117Z,20.40
2017-10-09T04:00:16.634Z,22.92
2017-10-09T04:02:44.933Z,20.67
2017-10-09T04:05:12.436Z,20.15
2017-10-09T04:07:39.951Z,20.27
2017-10-09T04:10:07.468Z,20.35
2017-10-09T04:12:34.986Z,22.33
2017-10-09T04:15:02.501Z,21.02
2017-10-09T04:17:30.795Z,23.30
2017-10-09T04:19:58.312Z,26.25
2017-10-09T04:22:25.815Z,20.10
2017-10-09T04:24:53.353Z,17.25
2017-10-09T04:27:21.643Z,21.83
2017-10-09T04:29:49.235Z,23.58
2017-10-09T04:32:16.734Z,24.70
2017-10-09T04:34:45.033Z,20.77
2017-10-09T04:37:12.553Z,31.60
2017-10-09T04:39:40.861Z,19.27
2017-10-09T04:42:08.377Z,24.33
2017-10-09T04:44:35.897Z,33.45
2017-10-09T04:47:03.438Z,32.75
2017-10-09T04:49:30.939Z,23.15
2017-10-09T04:51:58.486Z,20.23
2017-10-09T04:54:25.989Z,23.48
2017-10-09T04:56:54.249Z,26.00
2017-10-09T04:59:21.859Z,25.92
2017-10-09T05:01:49.354Z,24.15
2017-10-09T05:04:16.959Z,38.00
2017-10-09T05:06:44.471Z,27.92
2017-10-09T05:09:11.998Z,24.80
2017-10-09T05:11:39.493Z,31.15
2017-10-09T05:14:07.003Z,25.58
2017-10-09T05:16:34.634Z,28.60
2017-10-09T05:19:02.134Z,30.45
2017-10-09T05:21:29.666Z,29.37
2017-10-09T05:23:57.182Z,23.30
2017-10-09T05:26:24.695Z,25.35
2017-10-09T05:28:52.326Z,22.08
2017-10-09T05:31:19.841Z,25.17
2017-10-09T05:33:48.145Z,19.60
2017-10-09T05:36:15.656Z,27.73
2017-10-09T05:38:43.174Z,24.85
2017-10-09T05:41:10.709Z,38.22
2017-10-09T05:43:38.205Z,32.05
2017-10-09T05:46:05.748Z,33.50
2017-10-09T05:48:33.292Z,20.90
2017-10-09T05:51:00.813Z,32.70
2017-10-09T05:53:28.325Z,27.65
2017-10-09T05:55:56.607Z,28.73
2017-10-09T05:58:24.919Z,28.52
2017-10-09T06:00:52.463Z,36.03
2017-10-09T06:03:19.977Z,34.13
2017-10-09T06:05:48.295Z,29.52
2017-10-09T06:08:15.795Z,21.98
2017-10-09T06:10:43.415Z,23.30
2017-10-09T06:13:10.934Z,15.65
2017-10-09T06:15:39.216Z,17.75
2017-10-09T06:18:07.498Z,25.00
2017-10-09T06:20:35.020Z,27.98
2017-10-09T06:23:02.558Z,21.77
2017-10-09T06:25:30.078Z,22.83
2017-10-09T06:27:57.615Z,22.55
2017-10-09T06:30:25.181Z,20.65
2017-10-09T06:32:52.670Z,22.80
2017-10-09T06:35:20.170Z,17.63
2017-10-09T06:37:48.466Z,21.27
2017-10-09T06:40:16.040Z,15.80
2017-10-09T06:42:43.554Z,18.90
2017-10-09T06:45:11.089Z,19.67
2017-10-09T06:47:38.601Z,19.27
2017-10-09T06:50:06.867Z,12.27
2017-10-09T06:52:34.378Z,21.17
2017-10-09T06:55:01.887Z,16.33
2017-10-09T06:57:29.413Z,7.30
2017-10-09T06:59:56.910Z,16.67
2017-10-09T07:02:24.450Z,9.43
2017-10-09T07:04:51.959Z,13.37
2017-10-09T07:07:19.462Z,11.30
2017-10-09T07:09:46.987Z,16.67
2017-10-09T07:12:14.479Z,13.20
2017-10-09T07:14:42.003Z,14.23
2017-10-09T07:17:09.547Z,12.53
2017-10-09T07:19:37.047Z,10.83
2017-10-09T07:22:04.568Z,10.43
2017-10-09T07:24:32.065Z,13.87
2017-10-09T07:26:59.595Z,12.00
2017-10-09T07:29:27.092Z,6.93
2017-10-09T07:31:55.355Z,25.80
2017-10-09T07:34:22.965Z,14.57
2017-10-09T07:36:50.481Z,8.93
2017-10-09T07:39:18.794Z,11.63
2017-10-09T07:41:46.309Z,10.80
2017-10-09T07:44:13.817Z,12.20
2017-10-09T07:46:41.476Z,14.70
2017-10-09T07:49:08.972Z,26.70
2017-10-09T07:51:36.595Z,11.70
2017-10-09T07:54:04.090Z,14.60
2017-10-09T07:56:32.393Z,9.80
2017-10-09T07:58:59.917Z,5.77
2017-10-09T08:01:27.410Z,12.53
2017-10-09T08:03:54.936Z,8.70
2017-10-09T08:06:22.453Z,27.93
2017-10-09T08:08:49.979Z,32.10
2017-10-09T08:11:17.485Z,16.13
2017-10-09T08:13:45.756Z,15.17
2017-10-09T08:16:13.268Z,8.10
2017-10-09T08:18:40.777Z,12.33
2017-10-09T08:21:09.180Z,12.87
2017-10-09T08:23:36.692Z,15.93
2017-10-09T08:26:04.191Z,20.37
2017-10-09T08:28:31.721Z,11.40
2017-10-09T08:30:59.229Z,6.30
2017-10-09T08:33:26.784Z,24.70
2017-10-09T08:35:54.297Z,14.60
2017-10-09T08:38:22.579Z,14.03
2017-10-09T08:40:50.849Z,8.00
2017-10-09T08:43:18.389Z,9.30
2017-10-09T08:45:45.906Z,12.67
2017-10-09T08:48:14.181Z,7.30
2017-10-09T08:50:42.472Z,8.53
2017-10-09T08:53:09.977Z,7.97
2017-10-09T08:55:38.274Z,11.57
2017-10-09T08:58:05.770Z,9.13
2017-10-09T09:00:33.309Z,8.10
2017-10-09T09:03:00.821Z,18.27
2017-10-09T09:05:29.111Z,6.80
2017-10-09T09:07:57.394Z,10.70
2017-10-09T09:10:24.882Z,7.20
2017-10-09T09:12:52.399Z,10.17
2017-10-09T09:15:20.674Z,18.53
2017-10-09T09:17:48.981Z,10.87
2017-10-09T09:20:16.644Z,14.97
2017-10-09T09:22:44.159Z,24.60
2017-10-09T09:25:11.739Z,8.67
2017-10-09T09:27:40.014Z,10.63
2017-10-09T09:30:08.294Z,6.60
2017-10-09T09:32:36.554Z,12.77
2017-10-09T09:35:04.082Z,8.20
2017-10-09T09:37:31.589Z,5.37
2017-10-09T09:39:59.991Z,15.67
2017-10-09T09:42:27.495Z,7.00
2017-10-09T09:44:55.108Z,20.07
2017-10-09T09:47:22.614Z,8.37
2017-10-09T09:49:50.117Z,15.53
2017-10-09T09:52:17.640Z,5.90
2017-10-09T09:54:45.899Z,15.73
2017-10-09T09:57:13.516Z,10.97
2017-10-09T09:59:41.021Z,5.40
2017-10-09T10:02:08.520Z,11.03
2017-10-09T10:04:36.046Z,7.53
2017-10-09T10:07:03.547Z,9.50
2017-10-09T10:09:31.081Z,11.23
2017-10-09T10:11:59.352Z,10.67
2017-10-09T10:14:27.654Z,13.53
2017-10-09T10:16:55.152Z,14.37
2017-10-09T10:19:22.671Z,24.40
2017-10-09T10:21:50.190Z,17.37
2017-10-09T10:24:17.702Z,16.10
2017-10-09T10:26:45.254Z,13.97
2017-10-09T10:29:12.788Z,15.97
2017-10-09T10:31:41.069Z,14.80
2017-10-09T10:34:08.646Z,14.73
2017-10-09T10:36:36.168Z,10.50
2017-10-09T10:39:04.436Z,10.30
2017-10-09T10:41:32.734Z,18.80
2017-10-09T10:44:00.269Z,11.77
2017-10-09T10:46:27.851Z,16.00
2017-10-09T10:48:55.384Z,11.70
2017-10-09T10:51:22.892Z,16.13
2017-10-09T10:53:50.465Z,14.43
2017-10-09T10:56:17.996Z,13.37
2017-10-09T10:58:46.272Z,15.03
2017-10-09T11:01:14.569Z,19.40
2017-10-09T11:03:42.098Z,11.10
2017-10-09T11:06:09.638Z,13.60
2017-10-09T11:08:37.900Z,16.25
2017-10-09T11:11:06.913Z,7.80
2017-10-09T11:13:35.222Z,14.40
2017-10-09T11:16:02.745Z,18.60
2017-10-09T11:18:31.046Z,6.57
2017-10-09T11:20:58.556Z,10.53
2017-10-09T11:23:26.818Z,10.10
2017-10-09T11:25:54.355Z,10.30
2017-10-09T11:28:21.865Z,10.73
2017-10-09T11:30:49.402Z,18.00
2017-10-09T11:33:17.668Z,11.50
2017-10-09T11:35:45.293Z,8.57
2017-10-09T11:38:12.791Z,5.63
2017-10-09T11:40:41.055Z,9.47
2017-10-09T11:43:09.357Z,13.63
2017-10-09T11:45:36.869Z,7.83
2017-10-09T11:48:04.471Z,6.83
2017-10-09T11:50:31.968Z,10.87
2017-10-09T11:52:59.485Z,13.43
2017-10-09T11:55:27.000Z,9.23
2017-10-09T11:57:54.499Z,9.43
2017-10-09T12:00:22.036Z,5.87
2017-10-09T12:02:49.527Z,8.33
2017-10-09T12:05:17.045Z,8.37
2017-10-09T12:07:44.554Z,8.00
2017-10-09T12:10:12.048Z,24.00
2017-10-09T12:12:39.579Z,10.20
2017-10-09T12:15:07.093Z,10.70
2017-10-09T12:17:34.634Z,11.60
2017-10-09T12:20:02.140Z,10.30
2017-10-09T12:22:29.642Z,13.80
2017-10-09T12:24:57.270Z,5.60
2017-10-09T12:27:24.805Z,4.67
2017-10-09T12:29:52.309Z,3.93
2017-10-09T12:32:21.345Z,8.50
2017-10-09T12:34:48.873Z,7.20
2017-10-09T12:37:16.362Z,4.67
2017-10-09T12:39:44.657Z,3.53
2017-10-09T12:42:12.177Z,5.50
2017-10-09T12:44:39.698Z,4.93
2017-10-09T12:47:07.252Z,5.40
2017-10-09T12:49:34.747Z,8.03
2017-10-09T12:52:02.285Z,6.27
2017-10-09T12:54:29.802Z,5.13
2017-10-09T12:56:57.340Z,5.67
2017-10-09T12:59:25.605Z,7.90
2017-10-09T13:01:53.867Z,5.47
2017-10-09T13:04:21.383Z,6.23
2017-10-09T13:06:49.644Z,11.10
2017-10-09T13:09:18.688Z,9.23
2017-10-09T13:11:46.178Z,9.10
2017-10-09T13:14:13.726Z,15.10
2017-10-09T13:16:41.252Z,14.47
2017-10-09T13:19:08.750Z,15.17
2017-10-09T13:21:36.257Z,13.67
2017-10-09T13:24:04.548Z,28.33
2017-10-09T13:26:32.046Z,21.73
2017-10-09T13:28:59.593Z,16.10
2017-10-09T13:31:27.851Z,11.80
2017-10-09T13:33:56.855Z,16.53
2017-10-09T13:36:25.134Z,16.10
2017-10-09T13:38:53.405Z,13.97
2017-10-09T13:41:21.707Z,10.97
2017-10-09T13:43:49.208Z,11.30
2017-10-09T13:46:16.800Z,13.63
2017-10-09T13:48:45.101Z,11.80
2017-10-09T13:51:12.616Z,11.90
2017-10-09T13:53:40.150Z,16.07
2017-10-09T13:56:07.675Z,13.97
2017-10-09T13:58:35.221Z,19.00
2017-10-09T14:01:03.497Z,18.17
2017-10-09T14:03:31.759Z,21.50
2017-10-09T14:05:59.293Z,11.70
2017-10-09T14:08:27.577Z,17.43
2017-10-09T14:10:55.878Z,17.57
2017-10-09T14:13:23.454Z,17.00
2017-10-09T14:15:50.977Z,8.93
2017-10-09T14:18:19.242Z,11.30
2017-10-09T14:20:46.763Z,18.70
2017-10-09T14:23:14.278Z,13.60
2017-10-09T14:25:42.534Z,18.87
2017-10-09T14:28:10.827Z,17.60
2017-10-09T14:30:39.109Z,13.53
2017-10-09T14:40:29.953Z,15.90
2017-10-09T14:42:58.292Z,16.37
2017-10-09T14:45:25.792Z,19.43
2017-10-09T14:47:54.069Z,23.83
2017-10-09T14:50:22.436Z,11.87
2017-10-09T14:52:50.727Z,14.90
2017-10-09T14:55:18.238Z,14.00
2017-10-09T14:57:45.762Z,20.07
2017-10-09T15:00:13.286Z,18.83
2017-10-09T15:02:41.581Z,16.17
2017-10-09T15:05:09.114Z,18.63
2017-10-09T15:07:36.612Z,16.83
2017-10-09T15:10:04.165Z,20.77
2017-10-09T15:12:31.681Z,19.30
2017-10-09T15:14:59.201Z,18.50
2017-10-09T15:17:26.714Z,17.70
2017-10-09T15:19:54.994Z,16.03
2017-10-09T15:22:23.407Z,16.03
2017-10-09T15:24:50.921Z,14.27
2017-10-09T15:27:18.454Z,15.77
2017-10-09T15:29:47.484Z,17.30
2017-10-09T15:32:15.793Z,13.73
2017-10-09T15:34:43.326Z,25.00
2017-10-09T15:37:10.872Z,20.83
2017-10-09T15:39:38.414Z,28.53
2017-10-09T15:42:06.696Z,19.17
2017-10-09T15:44:34.967Z,22.77
2017-10-09T15:47:03.377Z,20.03
2017-10-09T15:49:30.879Z,20.10
2017-10-09T15:51:58.494Z,29.13
2017-10-09T15:54:26.875Z,26.83
2017-10-09T15:56:55.096Z,24.37
2017-10-09T15:59:22.617Z,33.63
2017-10-09T16:01:50.906Z,27.20
2017-10-09T16:04:18.492Z,29.10
2017-10-09T16:06:46.000Z,40.87
2017-10-09T16:09:13.510Z,29.77
2017-10-09T16:11:41.039Z,38.43
2017-10-09T16:14:09.311Z,34.93
2017-10-09T16:16:37.597Z,37.97
2017-10-09T16:19:05.921Z,35.20
2017-10-09T16:21:33.459Z,31.97
2017-10-09T16:24:00.988Z,41.90
2017-10-09T16:26:29.285Z,42.30
2017-10-09T16:28:56.854Z,34.83
2017-10-09T16:31:24.369Z,48.87
2017-10-09T16:33:52.631Z,40.63
2017-10-09T16:36:20.170Z,40.80
2017-10-09T16:38:48.474Z,45.07
2017-10-09T16:41:16.009Z,47.30
2017-10-09T16:43:43.544Z,45.33
2017-10-09T16:46:11.048Z,50.50
2017-10-09T16:48:38.582Z,48.93
2017-10-09T16:51:06.869Z,58.23
2017-10-09T16:53:34.416Z,45.40
2017-10-09T16:56:01.934Z,45.40
2017-10-09T16:58:30.217Z,44.70
2017-10-09T17:00:58.527Z,52.33
2017-10-09T17:03:26.795Z,53.47
2017-10-09T17:05:55.066Z,49.80
2017-10-09T17:08:22.591Z,48.87
2017-10-09T17:10:50.105Z,44.17
2017-10-09T17:13:18.387Z,55.83
2017-10-09T17:15:45.922Z,49.93
2017-10-09T17:18:13.424Z,40.80
2017-10-09T17:20:41.029Z,45.33
2017-10-09T17:23:08.586Z,41.53
2017-10-09T17:25:36.124Z,51.43
2017-10-09T17:28:04.437Z,42.60
2017-10-09T17:30:31.943Z,45.53
2017-10-09T17:32:59.466Z,35.43
2017-10-09T17:35:26.990Z,44.13
2017-10-09T17:37:55.264Z,107.40
2017-10-09T17:40:23.565Z,65.00
2017-10-09T17:42:51.086Z,53.30
2017-10-09T17:45:18.605Z,42.20
2017-10-09T17:47:46.131Z,51.57
2017-10-09T17:50:13.671Z,56.77
2017-10-09T17:52:41.944Z,52.27
2017-10-09T17:55:10.255Z,58.70
2017-10-09T17:57:37.777Z,60.50
2017-10-09T18:00:05.303Z,51.37
2017-10-09T18:02:32.831Z,68.87
2017-10-09T18:05:00.335Z,72.43
2017-10-09T18:07:28.765Z,46.00
2017-10-09T18:09:56.285Z,44.03
2017-10-09T18:12:23.861Z,116.87
2017-10-09T18:14:51.378Z,83.13
2017-10-09T18:17:18.908Z,75.83
2017-10-09T18:19:46.411Z,68.23
2017-10-09T18:22:14.711Z,59.87
2017-10-09T18:24:42.235Z,95.03
2017-10-09T18:27:09.768Z,74.97
2017-10-09T18:29:37.278Z,69.47
2017-10-09T18:32:04.806Z,45.30
2017-10-09T18:34:32.306Z,45.90
2017-10-09T18:36:59.850Z,36.00
2017-10-09T18:39:28.157Z,39.67
2017-10-09T18:41:55.667Z,43.20
2017-10-09T18:44:23.278Z,42.50
2017-10-09T18:46:50.802Z,55.27
2017-10-09T18:49:18.332Z,41.60
2017-10-09T18:51:45.840Z,42.20
2017-10-09T18:54:13.343Z,41.57
2017-10-09T18:56:41.635Z,44.77
2017-10-09T18:59:09.165Z,40.67
2017-10-09T19:01:37.476Z,41.50
2017-10-09T19:04:04.989Z,45.07
2017-10-09T19:06:32.505Z,42.47
2017-10-09T19:09:00.048Z,55.10
2017-10-09T19:11:27.556Z,47.90
2017-10-09T19:13:55.098Z,48.53
2017-10-09T19:16:22.636Z,55.63
2017-10-09T19:18:50.175Z,48.47
2017-10-09T19:21:17.713Z,50.10
2017-10-09T19:23:46.018Z,50.53
2017-10-09T19:26:13.547Z,49.50
2017-10-09T19:28:41.066Z,55.37
2017-10-09T19:31:08.589Z,47.53
2017-10-09T19:33:36.115Z,53.90
2017-10-09T19:36:03.643Z,49.53
2017-10-09T19:38:31.186Z,54.37
2017-10-09T19:40:59.470Z,58.23
2017-10-09T19:43:27.758Z,61.03
2017-10-09T19:45:55.274Z,58.30
2017-10-09T19:48:22.798Z,73.30
2017-10-09T19:50:50.338Z,72.20
2017-10-09T19:53:17.836Z,70.23
2017-10-09T19:55:45.471Z,78.30
2017-10-09T19:58:12.994Z,83.97
2017-10-09T20:00:41.277Z,77.77
2017-10-09T20:03:09.572Z,97.73
2017-10-09T20:05:37.093Z,88.63
2017-10-09T20:08:04.654Z,101.10
2017-10-09T20:10:32.168Z,86.77
2017-10-09T20:12:59.691Z,94.83
2017-10-09T20:15:27.213Z,91.50
2017-10-09T20:17:55.506Z,94.70
2017-10-09T20:20:23.004Z,98.77
2017-10-09T20:22:50.567Z,94.40
2017-10-09T20:25:18.091Z,89.97
2017-10-09T20:27:46.397Z,81.73
2017-10-09T20:30:14.015Z,80.77
2017-10-09T20:32:41.549Z,91.97
2017-10-09T20:35:09.829Z,76.20
2017-10-09T20:37:37.356Z,73.23
2017-10-09T20:40:04.966Z,59.93
2017-10-09T20:42:32.510Z,68.03
2017-10-09T20:45:00.189Z,63.97
2017-10-09T20:47:27.725Z,74.10
2017-10-09T20:49:55.238Z,68.00
2017-10-09T20:52:22.778Z,67.10
2017-10-09T20:54:50.278Z,77.60
2017-10-09T20:57:18.581Z,67.27
2017-10-09T20:59:46.101Z,72.23
2017-10-09T21:02:14.397Z,90.20
2017-10-09T21:04:41.915Z,75.73
2017-10-09T21:07:09.471Z,70.47
2017-10-09T21:09:36.993Z,73.27
2017-10-09T21:12:04.527Z,76.00
2017-10-09T21:14:32.039Z,75.87
2017-10-09T21:17:00.337Z,67.20
2017-10-09T21:19:27.843Z,62.87
2017-10-09T21:21:56.158Z,72.17
2017-10-09T21:24:23.662Z,74.50
2017-10-09T21:26:51.969Z,65.90
2017-10-09T21:29:20.258Z,70.57
2017-10-09T21:31:47.762Z,79.33
2017-10-09T21:34:15.324Z,69.33
2017-10-09T21:36:42.853Z,61.53
2017-10-09T21:39:10.389Z,80.80
2017-10-09T21:41:37.901Z,76.30
2017-10-09T21:44:05.428Z,68.53
2017-10-09T21:46:32.941Z,62.23
2017-10-09T21:49:01.231Z,72.30
2017-10-09T21:51:28.754Z,71.80
2017-10-09T21:53:56.275Z,71.27
2017-10-09T21:56:23.926Z,63.27
2017-10-09T21:58:51.461Z,68.40
2017-10-09T22:01:18.986Z,67.90
2017-10-09T22:03:46.542Z,65.30
2017-10-09T22:06:14.066Z,60.43
2017-10-09T22:08:41.591Z,63.10
2017-10-09T22:11:09.121Z,67.83
2017-10-09T22:13:36.638Z,67.90
2017-10-09T22:16:04.258Z,63.90
2017-10-09T22:18:31.814Z,76.33
2017-10-09T22:20:59.314Z,71.63
2017-10-09T22:23:26.844Z,66.80
2017-10-09T22:25:54.362Z,66.83
2017-10-09T22:28:22.669Z,65.97
2017-10-09T22:30:50.173Z,74.03
2017-10-09T22:36:08.759Z,67.83
2017-10-09T22:38:37.032Z,68.33
2017-10-09T22:41:05.328Z,61.13
2017-10-09T22:43:32.849Z,64.33
2017-10-09T22:46:01.183Z,58.87
2017-10-09T22:48:28.706Z,83.00
2017-10-09T22:50:57.018Z,62.60
2017-10-09T22:53:24.539Z,62.03
2017-10-09T22:55:52.811Z,60.23
2017-10-09T22:58:21.091Z,60.60
2017-10-09T23:00:48.606Z,60.37
2017-10-09T23:03:16.135Z,62.13
2017-10-09T23:05:44.430Z,68.90
2017-10-09T23:08:12.696Z,61.70
2017-10-09T23:10:41.001Z,68.50
2017-10-09T23:13:08.534Z,61.40
2017-10-09T23:15:36.838Z,72.80
2017-10-09T23:18:05.139Z,69.60
2017-10-09T23:20:32.682Z,68.07
2017-10-09T23:23:00.187Z,74.27
2017-10-09T23:28:18.502Z,73.03
2017-10-09T23:30:46.017Z,78.67
2017-10-09T23:33:13.531Z,82.23
2017-10-09T23:35:41.043Z,78.37
2017-10-09T23:38:08.576Z,70.10
2017-10-09T23:40:36.093Z,71.30
2017-10-09T23:43:04.386Z,70.93
2017-10-09T23:45:31.901Z,79.47
2017-10-09T23:50:50.218Z,92.20
2017-10-09T23:53:17.741Z,85.63
2017-10-09T23:55:46.011Z,94.47
2017-10-09T23:58:14.306Z,86.30
